Time;durP1;ratioP1;P1;durP2;ratioP2;P2;SDS_P1;SDS_P2;PMS_P1;PMS_P2;Temp;Humidity;BMP_temperature;BMP_pressure;BME280_temperature;BME280_humidity;BME280_pressure;Samples;Min_cycle;Max_cycle;Signal;HPM_P1;HPM_P2
2023/08/07 00:02:03;;;;;;;1.80;1.30;;;13.80;99.90;;;;;;4983066;28;20396;-82
2023/08/07 00:04:29;;;;;;;2.17;1.10;;;14.40;99.90;;;;;;4990164;28;20456;-84
2023/08/07 00:06:55;;;;;;;1.77;1.27;;;13.70;99.90;;;;;;4987216;28;20447;-83
2023/08/07 00:09:20;;;;;;;2.50;1.37;;;14.30;99.90;;;;;;4987779;28;20403;-82
2023/08/07 00:11:46;;;;;;;1.90;1.20;;;14.40;99.90;;;;;;4985749;28;20488;-82
2023/08/07 00:14:11;;;;;;;2.00;1.27;;;14.40;99.90;;;;;;4986976;28;20400;-83
2023/08/07 00:16:37;;;;;;;1.40;1.27;;;14.40;99.90;;;;;;4986249;28;20765;-82
2023/08/07 00:19:02;;;;;;;1.40;1.17;;;14.30;99.90;;;;;;4987397;28;20812;-82
2023/08/07 00:21:28;;;;;;;2.15;1.20;;;14.40;99.90;;;;;;4985184;28;20419;-82
2023/08/07 00:23:54;;;;;;;1.15;1.05;;;14.40;99.90;;;;;;4984347;28;20805;-82
2023/08/07 00:26:21;;;;;;;2.00;1.20;;;14.60;99.90;;;;;;4987012;28;20392;-82
2023/08/07 00:28:46;;;;;;;1.55;1.10;;;14.60;99.90;;;;;;4983987;28;20412;-84
2023/08/07 00:31:12;;;;;;;1.97;1.00;;;14.50;99.90;;;;;;4984735;28;20388;-83
2023/08/07 00:33:38;;;;;;;1.50;1.00;;;14.40;99.90;;;;;;4984020;28;20461;-83
2023/08/07 00:36:04;;;;;;;2.70;1.00;;;14.50;99.90;;;;;;4984567;28;20470;-82
2023/08/07 00:38:29;;;;;;;2.10;1.30;;;14.50;99.90;;;;;;4991248;28;20407;-83
2023/08/07 00:40:55;;;;;;;2.15;1.45;;;14.20;99.90;;;;;;4996004;28;20476;-83
2023/08/07 00:43:20;;;;;;;3.83;1.37;;;14.40;99.90;;;;;;4995580;28;20396;-83
2023/08/07 00:45:47;;;;;;;1.20;1.10;;;14.20;99.90;;;;;;4994643;28;20788;-84
2023/08/07 00:48:14;;;;;;;1.95;1.40;;;14.40;99.90;;;;;;4988633;28;20400;-83
2023/08/07 00:50:42;;;;;;;1.70;1.30;;;14.50;99.90;;;;;;4987931;28;20389;-83
2023/08/07 00:53:08;;;;;;;2.97;1.52;;;14.40;99.90;;;;;;4986921;28;20403;-83
2023/08/07 00:55:34;;;;;;;3.50;1.47;;;14.30;99.90;;;;;;4988014;28;20391;-83
2023/08/07 00:57:59;;;;;;;2.10;1.33;;;14.40;99.90;;;;;;4987390;28;20496;-83
2023/08/07 01:00:28;;;;;;;3.70;1.30;;;14.30;99.90;;;;;;4986024;28;20400;-83
2023/08/07 01:02:55;;;;;;;1.20;1.10;;;14.30;99.90;;;;;;4985211;28;20428;-83
2023/08/07 01:05:22;;;;;;;3.60;1.23;;;14.40;99.90;;;;;;4984717;28;20462;-84
2023/08/07 01:07:48;;;;;;;1.35;1.25;;;14.40;99.90;;;;;;4985384;28;20395;-83
2023/08/07 01:10:14;;;;;;;2.80;1.10;;;15.70;99.90;;;;;;4985949;28;20388;-82
2023/08/07 01:12:50;;;;;;;3.10;1.40;;;14.40;99.90;;;;;;4984457;28;20543;-83
2023/08/07 01:15:24;;;;;;;1.63;1.17;;;13.50;99.90;;;;;;4983890;28;20487;-83
2023/08/07 01:17:52;;;;;;;1.50;1.20;;;14.30;99.90;;;;;;4985969;28;20554;-83
2023/08/07 01:20:18;;;;;;;2.35;1.30;;;14.30;99.90;;;;;;4985564;28;20415;-82
2023/08/07 01:22:43;;;;;;;3.53;1.80;;;14.30;99.90;;;;;;4983922;28;20777;-83
2023/08/07 01:25:09;;;;;;;1.80;1.38;;;14.30;99.90;;;;;;4983767;28;20880;-82
2023/08/07 01:27:49;;;;;;;1.33;1.10;;;13.90;99.90;;;;;;4987288;28;20411;-82
2023/08/07 01:30:38;;;;;;;2.63;1.58;;;14.40;99.90;;;;;;4987114;28;20396;-82
2023/08/07 01:33:14;;;;;;;1.90;1.35;;;14.30;99.90;;;;;;4985877;28;20388;-82
2023/08/07 01:35:51;;;;;;;2.10;1.40;;;14.30;99.90;;;;;;4987264;28;20478;-83
2023/08/07 01:38:18;;;;;;;1.50;1.40;;;14.30;99.90;;;;;;4986081;28;20725;-82
2023/08/07 01:40:46;;;;;;;2.78;1.20;;;14.20;99.90;;;;;;4986460;28;20502;-82
2023/08/07 01:43:11;;;;;;;2.00;1.40;;;14.20;99.90;;;;;;4987697;28;20505;-82
2023/08/07 01:45:37;;;;;;;2.23;1.60;;;14.30;99.90;;;;;;4984453;28;20419;-82
2023/08/07 01:48:03;;;;;;;1.95;1.50;;;14.20;99.90;;;;;;4985262;28;20823;-82
2023/08/07 01:50:29;;;;;;;2.47;1.70;;;14.10;99.90;;;;;;4985129;28;20410;-83
2023/08/07 01:52:55;;;;;;;2.90;1.40;;;14.10;99.90;;;;;;4984832;28;20455;-82
2023/08/07 01:55:22;;;;;;;2.63;1.33;;;13.90;99.90;;;;;;4984238;28;20473;-83
2023/08/07 01:57:47;;;;;;;1.67;1.30;;;14.00;99.90;;;;;;4985198;28;20472;-82
2023/08/07 02:00:13;;;;;;;2.20;1.57;;;14.00;99.90;;;;;;4984547;28;21091;-83
2023/08/07 02:02:39;;;;;;;2.17;1.60;;;14.00;99.90;;;;;;4985029;28;20788;-82
2023/08/07 02:05:05;;;;;;;1.50;1.20;;;13.50;99.90;;;;;;4987016;28;20403;-82
2023/08/07 02:07:31;;;;;;;2.35;1.58;;;14.00;99.90;;;;;;4985293;28;20482;-82
2023/08/07 02:09:57;;;;;;;2.17;1.50;;;13.90;99.90;;;;;;4984260;28;20396;-82
2023/08/07 02:12:25;;;;;;;2.42;1.50;;;13.00;99.90;;;;;;4985511;28;20486;-82
2023/08/07 02:14:50;;;;;;;1.52;1.40;;;13.50;99.90;;;;;;4984333;28;20419;-82
2023/08/07 02:17:16;;;;;;;1.97;1.60;;;13.30;99.90;;;;;;4983015;28;20420;-82
2023/08/07 02:19:41;;;;;;;2.60;1.50;;;13.90;99.90;;;;;;4985087;28;20415;-82
2023/08/07 02:22:07;;;;;;;3.00;1.60;;;14.00;99.90;;;;;;4983674;28;20399;-82
2023/08/07 02:24:33;;;;;;;2.90;1.70;;;13.00;99.90;;;;;;4984507;28;20415;-82
2023/08/07 02:26:58;;;;;;;3.07;1.70;;;13.90;99.90;;;;;;4988755;28;20408;-82
2023/08/07 02:29:24;;;;;;;3.93;1.40;;;13.20;99.90;;;;;;4991000;28;20448;-83
2023/08/07 02:31:49;;;;;;;2.40;1.60;;;13.80;99.90;;;;;;4989822;28;20406;-83
2023/08/07 02:34:15;;;;;;;2.00;1.30;;;13.10;99.90;;;;;;4989583;28;20405;-83
2023/08/07 02:36:40;;;;;;;2.30;1.53;;;13.70;99.90;;;;;;4988482;28;20903;-82
2023/08/07 02:39:07;;;;;;;1.98;1.77;;;13.70;99.90;;;;;;4988946;28;20400;-83
2023/08/07 02:41:32;;;;;;;2.90;1.90;;;13.70;99.90;;;;;;4987680;28;20561;-83
2023/08/07 02:43:58;;;;;;;1.90;1.47;;;13.70;99.90;;;;;;4986822;28;20388;-83
2023/08/07 02:46:24;;;;;;;2.65;1.65;;;13.80;99.90;;;;;;4986338;28;20402;-82
2023/08/07 02:48:49;;;;;;;2.97;1.80;;;13.60;99.90;;;;;;4986967;28;20456;-82
2023/08/07 02:51:15;;;;;;;1.57;1.20;;;13.60;99.90;;;;;;4987001;28;20960;-82
2023/08/07 02:53:40;;;;;;;1.77;1.40;;;13.20;99.90;;;;;;4987891;28;20951;-82
2023/08/07 02:56:06;;;;;;;1.70;1.45;;;13.60;99.90;;;;;;4989476;28;20483;-82
2023/08/07 02:58:31;;;;;;;1.77;1.23;;;13.10;99.90;;;;;;4991160;28;20504;-82
2023/08/07 03:01:03;;;;;;;4.20;1.43;;;13.70;99.90;;;;;;4991084;28;20392;-82
2023/08/07 03:03:29;;;;;;;2.70;1.60;;;14.20;99.90;;;;;;4989431;28;20562;-83
2023/08/07 03:05:54;;;;;;;1.50;1.27;;;13.30;99.90;;;;;;4989034;28;20407;-83
2023/08/07 03:08:20;;;;;;;2.88;1.60;;;13.70;99.90;;;;;;4987367;28;20392;-83
2023/08/07 03:10:57;;;;;;;2.03;1.30;;;13.20;99.90;;;;;;4985901;28;20423;-83
2023/08/07 03:13:23;;;;;;;3.33;2.17;;;13.30;99.90;;;;;;4985373;28;20392;-82
2023/08/07 03:15:50;;;;;;;2.38;1.58;;;13.80;99.90;;;;;;4987236;28;20408;-83
2023/08/07 03:18:18;;;;;;;1.83;1.48;;;13.50;99.90;;;;;;4987081;28;20411;-82
2023/08/07 03:20:44;;;;;;;2.88;1.40;;;13.80;99.90;;;;;;4987029;28;20396;-82
2023/08/07 03:23:10;;;;;;;1.70;1.45;;;13.70;99.90;;;;;;4985985;28;20380;-83
2023/08/07 03:25:35;;;;;;;2.97;1.50;;;13.30;99.90;;;;;;5019684;23;20547;-79
2023/08/07 03:28:01;;;;;;;3.10;1.33;;;13.90;99.90;;;;;;4963457;29;20398;-80
2023/08/07 03:30:27;;;;;;;3.40;1.70;;;13.80;99.90;;;;;;4963330;29;20397;-80
2023/08/07 03:32:52;;;;;;;1.63;1.50;;;14.30;99.90;;;;;;4962302;29;20397;-79
2023/08/07 03:35:18;;;;;;;1.63;1.52;;;13.80;99.90;;;;;;4964032;29;20420;-79
2023/08/07 03:37:44;;;;;;;2.28;1.60;;;13.40;99.90;;;;;;4963243;28;20433;-79
2023/08/07 03:40:09;;;;;;;1.97;1.60;;;13.60;99.90;;;;;;4965481;29;20398;-80
2023/08/07 03:42:35;;;;;;;2.37;1.50;;;13.80;99.90;;;;;;4956760;29;20418;-79
2023/08/07 03:45:01;;;;;;;2.10;1.50;;;14.80;99.90;;;;;;4945041;29;20394;-79
2023/08/07 03:47:26;;;;;;;4.20;1.50;;;13.80;99.90;;;;;;4944964;29;20412;-79
2023/08/07 03:49:52;;;;;;;1.88;1.63;;;13.60;99.90;;;;;;4944104;29;20903;-80
2023/08/07 03:52:18;;;;;;;2.90;1.70;;;13.70;99.90;;;;;;4944100;29;20399;-78
2023/08/07 03:54:43;;;;;;;2.00;1.40;;;13.70;99.90;;;;;;4941778;29;20406;-78
2023/08/07 03:57:10;;;;;;;1.43;1.20;;;13.80;99.90;;;;;;4949265;29;20415;-77
2023/08/07 03:59:36;;;;;;;1.60;1.50;;;13.80;99.90;;;;;;4961181;29;20410;-78
2023/08/07 04:02:02;;;;;;;2.00;1.50;;;13.80;99.90;;;;;;4968990;28;20396;-77
2023/08/07 04:04:27;;;;;;;1.63;1.27;;;13.80;99.90;;;;;;4967458;29;21074;-79
2023/08/07 04:06:53;;;;;;;2.63;1.30;;;13.30;99.90;;;;;;4962432;29;20402;-80
2023/08/07 04:09:19;;;;;;;1.80;1.40;;;13.90;99.90;;;;;;4962794;29;20425;-79
2023/08/07 04:11:44;;;;;;;1.45;1.20;;;13.90;99.90;;;;;;4962224;28;20398;-78
2023/08/07 04:14:10;;;;;;;2.00;1.50;;;13.90;99.90;;;;;;4953837;29;20501;-79
2023/08/07 04:16:37;;;;;;;3.22;1.40;;;13.90;99.90;;;;;;4942565;29;20396;-79
2023/08/07 04:19:02;;;;;;;2.38;1.38;;;13.40;99.90;;;;;;4943171;29;20394;-80
2023/08/07 04:21:28;;;;;;;2.80;1.40;;;13.80;99.90;;;;;;4943169;29;20706;-79
2023/08/07 04:23:53;;;;;;;2.05;1.30;;;13.90;99.90;;;;;;4960813;29;20834;-79
2023/08/07 04:26:19;;;;;;;1.88;1.30;;;13.80;99.90;;;;;;4962875;29;20484;-80
2023/08/07 04:28:45;;;;;;;2.60;1.27;;;13.90;99.90;;;;;;4962619;28;20401;-78
2023/08/07 04:31:10;;;;;;;1.80;1.48;;;13.90;99.90;;;;;;4961416;29;20401;-79
2023/08/07 04:33:36;;;;;;;2.90;1.40;;;13.90;99.90;;;;;;4946183;29;20919;-79
2023/08/07 04:36:01;;;;;;;2.10;1.40;;;13.60;99.90;;;;;;4941188;29;20399;-78
2023/08/07 04:38:27;;;;;;;2.23;1.40;;;14.00;99.90;;;;;;4942305;29;20418;-77
2023/08/07 04:40:53;;;;;;;2.10;1.40;;;14.00;99.90;;;;;;4941768;29;20915;-78
2023/08/07 04:43:20;;;;;;;1.40;1.30;;;13.80;99.90;;;;;;4941925;29;20908;-79
2023/08/07 04:45:46;;;;;;;1.80;1.30;;;14.00;99.90;;;;;;4957672;29;20924;-78
2023/08/07 04:48:11;;;;;;;3.60;1.50;;;13.70;99.90;;;;;;4944468;29;20423;-76
2023/08/07 04:50:38;;;;;;;1.50;1.20;;;13.90;99.90;;;;;;4936839;29;20399;-77
2023/08/07 04:53:04;;;;;;;1.90;1.30;;;13.90;99.90;;;;;;4938087;29;20410;-77
2023/08/07 04:55:31;;;;;;;3.20;1.20;;;13.90;99.90;;;;;;4938457;29;20391;-78
2023/08/07 04:57:56;;;;;;;1.90;1.40;;;14.50;99.90;;;;;;4947494;29;20411;-78
2023/08/07 05:00:22;;;;;;;1.80;1.50;;;14.10;99.90;;;;;;4939701;29;20991;-78
2023/08/07 05:02:48;;;;;;;2.47;1.40;;;13.80;99.90;;;;;;4941529;29;20945;-78
2023/08/07 05:05:15;;;;;;;2.20;1.60;;;13.80;99.90;;;;;;4946737;29;20410;-77
2023/08/07 05:07:41;;;;;;;1.87;1.53;;;13.80;99.90;;;;;;4940271;29;20394;-78
2023/08/07 05:10:08;;;;;;;2.38;1.30;;;13.80;99.90;;;;;;4938059;29;20760;-78
2023/08/07 05:12:34;;;;;;;3.60;1.50;;;13.80;99.90;;;;;;4936195;29;20466;-78
2023/08/07 05:14:59;;;;;;;2.30;1.50;;;13.70;99.90;;;;;;4944151;29;20399;-77
2023/08/07 05:17:25;;;;;;;2.80;1.67;;;13.70;99.90;;;;;;4938506;29;20486;-78
2023/08/07 05:19:50;;;;;;;2.25;1.65;;;13.60;99.90;;;;;;4937429;29;20482;-77
2023/08/07 05:22:16;;;;;;;1.80;1.57;;;13.70;99.90;;;;;;4948011;29;20396;-76
2023/08/07 05:24:43;;;;;;;1.37;1.27;;;13.70;99.90;;;;;;4942993;29;20462;-78
2023/08/07 05:27:09;;;;;;;2.40;1.70;;;13.70;99.90;;;;;;4945878;29;20415;-78
2023/08/07 05:29:42;;;;;;;2.40;1.60;;;13.70;99.90;;;;;;4948739;29;20406;-77
2023/08/07 05:32:12;;;;;;;4.13;1.60;;;13.70;99.90;;;;;;4950627;29;20413;-77
2023/08/07 05:34:38;;;;;;;1.67;1.57;;;13.70;99.90;;;;;;4945050;29;20403;-77
2023/08/07 05:37:03;;;;;;;2.38;1.30;;;13.70;99.90;;;;;;4949659;29;20415;-77
2023/08/07 05:39:29;;;;;;;2.42;1.67;;;13.70;99.90;;;;;;4955143;29;20436;-78
2023/08/07 05:41:57;;;;;;;2.60;1.40;;;13.60;99.90;;;;;;4962595;29;20398;-78
2023/08/07 05:44:23;;;;;;;1.73;1.40;;;13.70;99.90;;;;;;4961029;28;20389;-78
2023/08/07 05:46:48;;;;;;;1.85;1.35;;;13.60;99.90;;;;;;4959891;29;20460;-78
2023/08/07 05:49:14;;;;;;;1.90;1.30;;;13.70;99.90;;;;;;4946118;29;20408;-77
2023/08/07 05:51:39;;;;;;;2.30;1.40;;;13.60;99.90;;;;;;4939685;29;20435;-78
2023/08/07 05:54:05;;;;;;;2.38;1.00;;;13.70;99.90;;;;;;4940100;29;20523;-78
2023/08/07 05:56:30;;;;;;;2.28;1.30;;;13.60;99.90;;;;;;4935728;29;20408;-77
2023/08/07 05:58:56;;;;;;;3.00;1.50;;;13.70;99.90;;;;;;4937956;29;20491;-77
2023/08/07 06:01:22;;;;;;;1.60;1.50;;;13.70;99.90;;;;;;4939885;29;20882;-78
2023/08/07 06:03:47;;;;;;;2.17;1.42;;;13.80;99.90;;;;;;4941217;29;20939;-79
2023/08/07 06:06:13;;;;;;;1.50;1.30;;;13.90;99.90;;;;;;4941658;29;20396;-79
2023/08/07 06:08:39;;;;;;;2.70;1.50;;;13.70;99.90;;;;;;4957119;29;20409;-78
2023/08/07 06:11:08;;;;;;;2.17;1.60;;;13.90;99.90;;;;;;4949304;28;20427;-79
2023/08/07 06:13:33;;;;;;;2.10;1.50;;;14.00;99.90;;;;;;4943662;29;20453;-78
2023/08/07 06:15:59;;;;;;;3.27;1.60;;;13.40;99.90;;;;;;4942833;29;20387;-79
2023/08/07 06:18:25;;;;;;;2.63;1.40;;;14.00;99.90;;;;;;4952803;29;20413;-78
2023/08/07 06:20:50;;;;;;;1.70;1.40;;;14.00;99.90;;;;;;4959741;28;20759;-77
2023/08/07 06:23:16;;;;;;;1.50;1.10;;;14.10;99.90;;;;;;4962172;29;20398;-78
2023/08/07 06:25:42;;;;;;;2.53;1.43;;;14.10;99.90;;;;;;4959447;28;20406;-78
2023/08/07 06:28:08;;;;;;;2.53;1.40;;;14.20;99.90;;;;;;4954931;29;20408;-79
2023/08/07 06:30:34;;;;;;;1.90;1.40;;;14.10;99.90;;;;;;4942560;29;20811;-78
2023/08/07 06:32:59;;;;;;;3.10;1.60;;;14.20;99.90;;;;;;4953651;29;20489;-79
2023/08/07 06:35:25;;;;;;;2.40;1.40;;;14.10;99.90;;;;;;4961286;28;20416;-78
2023/08/07 06:37:50;;;;;;;2.20;1.53;;;14.20;99.90;;;;;;4950654;28;20415;-79
2023/08/07 06:40:16;;;;;;;2.23;1.40;;;14.10;99.90;;;;;;4940287;29;21077;-79
2023/08/07 06:42:41;;;;;;;2.60;1.25;;;14.10;99.90;;;;;;4949123;29;20437;-81
2023/08/07 06:45:07;;;;;;;2.60;1.27;;;14.00;99.90;;;;;;4965593;29;20394;-79
2023/08/07 06:47:33;;;;;;;2.83;1.53;;;14.00;99.90;;;;;;4963150;28;20394;-78
2023/08/07 06:49:58;;;;;;;2.27;1.30;;;14.00;99.90;;;;;;4962188;28;20774;-78
2023/08/07 06:52:24;;;;;;;1.30;1.20;;;14.00;99.90;;;;;;4954214;29;20422;-78
2023/08/07 06:54:49;;;;;;;2.80;2.00;;;14.00;99.90;;;;;;4946733;29;20392;-77
2023/08/07 06:57:15;;;;;;;2.20;1.30;;;14.00;99.90;;;;;;4949998;29;20411;-77
2023/08/07 06:59:40;;;;;;;3.00;1.50;;;14.10;99.90;;;;;;4946798;29;20404;-78
2023/08/07 07:02:06;;;;;;;2.22;1.30;;;14.00;99.90;;;;;;4945148;29;20412;-78
2023/08/07 07:04:32;;;;;;;2.27;1.40;;;14.00;99.90;;;;;;4939661;29;20408;-79
2023/08/07 07:06:58;;;;;;;3.00;1.20;;;14.00;99.90;;;;;;4939471;29;20407;-79
2023/08/07 07:09:24;;;;;;;2.80;1.50;;;14.00;99.90;;;;;;4937145;29;20411;-79
2023/08/07 07:11:49;;;;;;;1.88;1.50;;;14.00;99.90;;;;;;4939525;29;20465;-78
2023/08/07 07:14:15;;;;;;;1.20;1.10;;;14.10;99.90;;;;;;4940620;29;20469;-79
2023/08/07 07:16:42;;;;;;;2.13;1.20;;;14.00;99.90;;;;;;4942752;29;20461;-79
2023/08/07 07:19:09;;;;;;;3.72;1.50;;;14.10;99.90;;;;;;4938766;29;20486;-79
2023/08/07 07:21:35;;;;;;;1.60;1.40;;;14.10;99.90;;;;;;4939149;29;20415;-79
2023/08/07 07:24:02;;;;;;;2.70;1.30;;;14.10;99.90;;;;;;4938066;29;20399;-80
2023/08/07 07:26:27;;;;;;;2.00;1.30;;;13.70;99.90;;;;;;4941039;29;20395;-79
2023/08/07 07:28:53;;;;;;;1.70;1.37;;;14.30;99.90;;;;;;4941352;29;20442;-78
2023/08/07 07:31:18;;;;;;;1.60;1.50;;;14.30;99.90;;;;;;4941829;29;20414;-79
2023/08/07 07:33:44;;;;;;;2.85;1.50;;;14.20;99.90;;;;;;4942441;29;20411;-78
2023/08/07 07:36:20;;;;;;;2.40;1.30;;;14.50;99.90;;;;;;4941661;29;20934;-78
2023/08/07 07:38:47;;;;;;;1.40;1.30;;;14.50;99.90;;;;;;4939758;29;20418;-79
2023/08/07 07:41:16;;;;;;;3.85;1.40;;;14.50;99.90;;;;;;4940231;29;20768;-79
2023/08/07 07:43:41;;;;;;;1.63;1.30;;;13.90;99.90;;;;;;4939690;29;20392;-80
2023/08/07 07:46:07;;;;;;;2.10;1.10;;;14.40;99.90;;;;;;4941012;29;20415;-79
2023/08/07 07:48:33;;;;;;;1.70;1.30;;;14.50;99.90;;;;;;4941453;29;20431;-79
2023/08/07 07:51:02;;;;;;;1.40;1.20;;;14.50;99.90;;;;;;4940253;29;20407;-79
2023/08/07 07:53:28;;;;;;;2.47;1.40;;;14.50;99.90;;;;;;4941039;29;20396;-80
2023/08/07 07:55:54;;;;;;;1.50;1.25;;;14.50;99.90;;;;;;4942807;29;20447;-79
2023/08/07 07:58:20;;;;;;;2.40;1.20;;;14.50;99.90;;;;;;4940305;29;20425;-80
2023/08/07 08:00:46;;;;;;;1.58;1.35;;;14.60;99.90;;;;;;4949636;28;20386;-79
2023/08/07 08:03:12;;;;;;;2.03;1.15;;;14.50;99.90;;;;;;4944770;29;20396;-80
2023/08/07 08:05:38;;;;;;;2.00;1.50;;;14.40;99.90;;;;;;4941240;29;20495;-79
2023/08/07 08:08:04;;;;;;;1.90;1.50;;;13.70;99.90;;;;;;4940556;29;20482;-79
2023/08/07 08:10:30;;;;;;;1.80;1.35;;;14.30;99.90;;;;;;4943153;29;20399;-79
2023/08/07 08:12:56;;;;;;;2.50;1.40;;;14.40;99.90;;;;;;4940023;29;20407;-80
2023/08/07 08:15:22;;;;;;;1.80;1.60;;;14.50;99.90;;;;;;4942580;29;20770;-78
2023/08/07 08:17:48;;;;;;;2.30;1.20;;;14.50;99.90;;;;;;4942849;29;20495;-80
2023/08/07 08:20:18;;;;;;;2.00;1.20;;;14.70;99.90;;;;;;4941280;29;20398;-79
2023/08/07 08:22:47;;;;;;;1.55;1.33;;;14.70;99.90;;;;;;4939239;29;20408;-79
2023/08/07 08:25:13;;;;;;;1.70;1.60;;;14.80;99.90;;;;;;4943019;29;20495;-80
2023/08/07 08:27:39;;;;;;;2.40;1.40;;;14.80;99.90;;;;;;4942822;29;20431;-80
2023/08/07 08:30:08;;;;;;;1.75;1.00;;;14.70;99.90;;;;;;4940083;29;20403;-78
2023/08/07 08:32:34;;;;;;;2.75;1.20;;;14.80;99.90;;;;;;4939272;29;20471;-78
2023/08/07 08:34:59;;;;;;;1.47;1.27;;;14.60;99.90;;;;;;4943339;29;20886;-78
2023/08/07 08:37:25;;;;;;;2.20;1.50;;;14.40;99.90;;;;;;4958736;29;20424;-78
2023/08/07 08:39:50;;;;;;;1.50;1.40;;;14.40;99.90;;;;;;4959471;28;20771;-78
2023/08/07 08:42:19;;;;;;;2.63;1.30;;;14.40;99.90;;;;;;4947647;28;20416;-78
2023/08/07 08:44:56;;;;;;;1.48;1.30;;;14.40;99.90;;;;;;4942900;29;20407;-77
2023/08/07 08:47:26;;;;;;;2.20;1.40;;;14.40;99.90;;;;;;4942674;29;20408;-78
2023/08/07 08:50:01;;;;;;;1.63;1.50;;;14.40;99.90;;;;;;4935579;29;20395;-77
2023/08/07 08:52:28;;;;;;;3.30;1.50;;;14.20;99.90;;;;;;4948338;29;20428;-77
2023/08/07 08:54:54;;;;;;;2.30;1.30;;;14.10;99.90;;;;;;4941305;28;20458;-76
2023/08/07 08:57:20;;;;;;;2.33;1.50;;;14.00;99.90;;;;;;4936659;29;20484;-77
2023/08/07 08:59:46;;;;;;;3.05;1.60;;;14.10;99.90;;;;;;4940482;29;20396;-77
2023/08/07 09:02:12;;;;;;;2.40;1.40;;;14.10;99.90;;;;;;4941124;29;20478;-79
2023/08/07 09:04:38;;;;;;;1.80;1.40;;;14.20;99.90;;;;;;4940113;29;20950;-78
2023/08/07 09:07:04;;;;;;;3.23;1.60;;;14.30;99.90;;;;;;4938989;29;20982;-78
2023/08/07 09:09:30;;;;;;;3.22;1.70;;;14.40;99.90;;;;;;4941481;29;20922;-78
2023/08/07 09:11:58;;;;;;;2.50;1.20;;;14.50;99.90;;;;;;4938668;29;20435;-78
2023/08/07 09:14:30;;;;;;;1.60;1.50;;;14.60;99.90;;;;;;4937611;29;20768;-77
2023/08/07 09:16:59;;;;;;;1.60;1.50;;;14.80;99.90;;;;;;4935841;29;20403;-80
2023/08/07 09:19:27;;;;;;;1.97;1.70;;;15.10;99.90;;;;;;4942447;29;20466;-78
2023/08/07 09:21:53;;;;;;;1.50;1.25;;;14.80;99.90;;;;;;4942155;29;20391;-79
2023/08/07 09:24:21;;;;;;;2.92;1.38;;;15.10;99.90;;;;;;4941902;29;20423;-81
2023/08/07 09:26:47;;;;;;;1.33;1.20;;;15.20;99.90;;;;;;5001164;23;20473;-84
2023/08/07 09:29:13;;;;;;;2.58;1.50;;;15.20;99.90;;;;;;4991380;28;20398;-84
2023/08/07 09:31:39;;;;;;;2.00;1.50;;;15.30;99.90;;;;;;4991419;28;20394;-84
2023/08/07 09:34:13;;;;;;;1.77;1.50;;;15.40;99.90;;;;;;4990996;28;20750;-85
2023/08/07 09:36:39;;;;;;;1.40;1.30;;;15.60;99.90;;;;;;4987649;28;20428;-84
2023/08/07 09:39:04;;;;;;;1.30;1.00;;;15.70;99.90;;;;;;4985775;28;20546;-84
2023/08/07 09:41:30;;;;;;;1.90;1.00;;;15.30;99.90;;;;;;4985076;28;21048;-84
2023/08/07 09:43:57;;;;;;;2.20;1.30;;;15.70;99.90;;;;;;4993327;28;20427;-85
2023/08/07 09:46:24;;;;;;;1.95;1.40;;;15.80;99.90;;;;;;4987341;28;20402;-85
2023/08/07 09:48:50;;;;;;;2.17;1.45;;;15.80;99.90;;;;;;4989520;28;20417;-85
2023/08/07 09:51:18;;;;;;;1.60;1.50;;;17.60;99.90;;;;;;4988177;28;20764;-85
2023/08/07 09:53:44;;;;;;;2.10;1.30;;;15.80;99.90;;;;;;4989273;28;20386;-84
2023/08/07 09:56:10;;;;;;;2.40;1.00;;;15.70;99.90;;;;;;4989111;28;20959;-85
2023/08/07 09:58:35;;;;;;;2.30;1.30;;;15.40;99.90;;;;;;4989750;28;20410;-85
2023/08/07 10:01:04;;;;;;;1.40;1.10;;;15.60;99.90;;;;;;4989806;28;20454;-85
2023/08/07 10:03:30;;;;;;;1.98;1.30;;;15.80;99.90;;;;;;4986547;28;20458;-85
2023/08/07 10:05:55;;;;;;;2.10;1.40;;;15.90;99.90;;;;;;4987886;28;20477;-86
2023/08/07 10:08:22;;;;;;;2.10;1.25;;;15.90;99.90;;;;;;4988857;28;20397;-86
2023/08/07 10:10:47;;;;;;;1.50;1.40;;;15.90;99.90;;;;;;4988226;28;20443;-85
2023/08/07 10:13:14;;;;;;;1.42;1.23;;;17.90;99.90;;;;;;4989142;28;20802;-85
2023/08/07 10:15:42;;;;;;;1.33;1.20;;;15.80;99.90;;;;;;4989298;28;20450;-85
2023/08/07 10:18:08;;;;;;;2.40;1.50;;;15.50;99.90;;;;;;4987183;28;20493;-86
2023/08/07 10:20:34;;;;;;;2.08;1.27;;;16.10;99.90;;;;;;4992728;28;20410;-86
2023/08/07 10:23:06;;;;;;;1.60;1.50;;;15.20;99.90;;;;;;4989585;28;20420;-83
2023/08/07 10:25:32;;;;;;;1.80;1.10;;;16.20;99.90;;;;;;4987805;28;20420;-85
2023/08/07 10:28:02;;;;;;;2.22;1.40;;;15.50;99.90;;;;;;4970980;28;20451;-85
2023/08/07 10:30:31;;;;;;;1.33;1.23;;;16.40;99.90;;;;;;4989942;28;20420;-82
2023/08/07 10:32:59;;;;;;;2.63;1.20;;;16.70;99.90;;;;;;4983235;28;20560;-86
2023/08/07 10:35:32;;;;;;;2.90;1.58;;;16.90;99.90;;;;;;4986532;28;20443;-86
2023/08/07 10:38:08;;;;;;;3.35;1.25;;;16.80;99.90;;;;;;4986713;28;20474;-86
2023/08/07 10:40:54;;;;;;;1.70;1.40;;;16.30;99.90;;;;;;4985205;28;20406;-86
2023/08/07 10:43:20;;;;;;;1.50;1.08;;;16.30;99.90;;;;;;4984794;28;20496;-86
2023/08/07 10:45:45;;;;;;;2.75;1.42;;;16.70;99.90;;;;;;4986891;28;20383;-86
2023/08/07 10:48:13;;;;;;;2.80;1.30;;;16.90;99.90;;;;;;4988817;28;20402;-86
2023/08/07 10:50:53;;;;;;;1.73;1.00;;;16.90;99.90;;;;;;4998931;28;20395;-85
2023/08/07 10:53:43;;;;;;;2.50;1.33;;;18.20;99.90;;;;;;4995752;28;20407;-86
2023/08/07 10:56:14;;;;;;;1.70;1.30;;;17.00;99.90;;;;;;4986511;28;20405;-87
2023/08/07 10:58:41;;;;;;;1.65;1.40;;;17.10;99.90;;;;;;5005033;28;20422;-86
2023/08/07 11:01:31;;;;;;;1.20;1.10;;;16.90;99.90;;;;;;5017691;28;20394;-85
2023/08/07 11:03:59;;;;;;;1.80;1.20;;;17.00;99.90;;;;;;5018244;28;20397;-84
2023/08/07 11:06:31;;;;;;;2.90;1.27;;;17.20;99.90;;;;;;5011695;28;20533;-86
2023/08/07 11:08:57;;;;;;;1.27;1.13;;;17.40;99.90;;;;;;4991691;28;20398;-86
2023/08/07 11:11:23;;;;;;;1.83;1.38;;;19.10;99.90;;;;;;4994689;28;20395;-86
2023/08/07 11:13:49;;;;;;;2.20;1.20;;;16.80;99.90;;;;;;4992903;28;20402;-85
2023/08/07 11:16:14;;;;;;;2.80;1.40;;;17.40;99.90;;;;;;4993360;28;20406;-85
2023/08/07 11:18:43;;;;;;;1.50;1.15;;;17.50;99.90;;;;;;5010225;28;20510;-84
2023/08/07 11:21:10;;;;;;;1.25;1.00;;;17.50;99.90;;;;;;4999429;28;20409;-85
2023/08/07 11:23:40;;;;;;;2.10;1.20;;;17.90;99.90;;;;;;4989789;28;20415;-84
2023/08/07 11:26:07;;;;;;;1.75;1.13;;;18.20;99.90;;;;;;4991759;28;20412;-85
2023/08/07 11:28:33;;;;;;;1.20;1.10;;;17.50;99.90;;;;;;4995269;28;20492;-86
2023/08/07 11:30:59;;;;;;;1.70;1.20;;;18.10;99.90;;;;;;4986627;28;20926;-86
2023/08/07 11:33:25;;;;;;;2.40;1.20;;;18.70;99.90;;;;;;4979955;28;20427;-85
2023/08/07 11:35:51;;;;;;;2.70;1.17;;;18.20;99.90;;;;;;4983884;28;20479;-86
2023/08/07 11:38:33;;;;;;;2.13;1.20;;;16.60;99.90;;;;;;4991828;28;20470;-86
2023/08/07 11:41:03;;;;;;;2.00;1.08;;;17.80;99.90;;;;;;4984464;28;20411;-85
2023/08/07 11:43:33;;;;;;;3.20;1.60;;;17.10;99.90;;;;;;4984751;28;20398;-86
2023/08/07 11:46:01;;;;;;;1.55;1.08;;;16.70;99.90;;;;;;4986563;28;20808;-85
2023/08/07 11:48:29;;;;;;;2.40;1.10;;;17.50;99.90;;;;;;4986588;28;21081;-86
2023/08/07 11:50:55;;;;;;;1.40;1.00;;;17.50;99.90;;;;;;4983649;28;20414;-85
2023/08/07 11:53:23;;;;;;;1.40;1.10;;;17.50;99.90;;;;;;4991846;28;20422;-86
2023/08/07 11:55:58;;;;;;;1.60;1.20;;;17.80;99.90;;;;;;4985009;28;20410;-85
2023/08/07 11:58:33;;;;;;;1.50;1.00;;;18.10;99.90;;;;;;4985601;28;21096;-86
2023/08/07 12:01:03;;;;;;;1.40;1.25;;;17.90;99.90;;;;;;4984901;28;20453;-85
2023/08/07 12:03:41;;;;;;;1.67;1.30;;;18.10;99.90;;;;;;4988803;28;20390;-89
2023/08/07 12:06:08;;;;;;;2.47;1.20;;;18.20;99.90;;;;;;4990519;28;20415;-85
2023/08/07 12:08:39;;;;;;;1.30;1.20;;;18.50;99.90;;;;;;4987002;28;20489;-85
2023/08/07 12:11:07;;;;;;;2.13;1.40;;;18.70;99.90;;;;;;4989736;28;20410;-86
2023/08/07 12:13:35;;;;;;;2.00;1.30;;;18.60;99.90;;;;;;4987693;28;20501;-87
2023/08/07 12:16:03;;;;;;;1.40;1.13;;;20.20;99.90;;;;;;4986630;28;20490;-86
2023/08/07 12:18:30;;;;;;;1.00;0.90;;;18.10;99.90;;;;;;4983418;28;20436;-86
2023/08/07 12:21:00;;;;;;;1.25;1.15;;;17.90;99.90;;;;;;4986226;28;20872;-84
2023/08/07 12:23:27;;;;;;;2.83;1.40;;;16.90;99.90;;;;;;4983380;28;20444;-84
2023/08/07 12:25:53;;;;;;;1.83;1.30;;;17.80;99.90;;;;;;4984844;28;20463;-83
2023/08/07 12:28:18;;;;;;;1.20;1.00;;;17.70;99.90;;;;;;4986647;28;20441;-83
2023/08/07 12:30:46;;;;;;;1.60;1.15;;;17.70;99.90;;;;;;4983677;28;20836;-83
2023/08/07 12:33:12;;;;;;;1.60;1.20;;;18.80;99.90;;;;;;4981055;28;20551;-83
2023/08/07 12:35:37;;;;;;;2.03;1.20;;;18.50;99.90;;;;;;4984475;28;20518;-83
2023/08/07 12:38:03;;;;;;;1.37;1.10;;;19.90;99.90;;;;;;4990221;28;20501;-84
2023/08/07 12:40:30;;;;;;;1.10;1.00;;;19.00;99.90;;;;;;4989097;28;20466;-83
2023/08/07 12:42:56;;;;;;;7.88;1.30;;;18.90;99.90;;;;;;4981261;28;20884;-85
2023/08/07 12:45:22;;;;;;;1.17;0.80;;;18.10;99.90;;;;;;4992947;28;20424;-86
2023/08/07 12:47:47;;;;;;;1.98;1.30;;;20.70;99.90;;;;;;4988024;28;20396;-84